Time;durP1;ratioP1;P1;durP2;ratioP2;P2;SDS_P1;SDS_P2;PMS_P1;PMS_P2;Temp;Humidity;BMP_temperature;BMP_pressure;BME280_temperature;BME280_humidity;BME280_pressure;Samples;Min_cycle;Max_cycle;Signal;HPM_P1;HPM_P2
2023/10/18 00:01:00;;;;;;;35.38;20.63;;;;;;;;;;5083586;28;20097;-83
2023/10/18 00:03:29;;;;;;;33.67;21.25;;;;;;;;;;5102385;28;20047;-83
2023/10/18 00:05:56;;;;;;;29.85;20.60;;;;;;;;;;5067566;28;20051;-83
2023/10/18 00:08:25;;;;;;;32.58;21.65;;;;;;;;;;5095278;28;20072;-84
2023/10/18 00:10:55;;;;;;;37.05;22.10;;;;;;;;;;5101906;28;20056;-83
2023/10/18 00:13:25;;;;;;;35.15;22.20;;;;;;;;;;5093624;28;20040;-83
2023/10/18 00:15:53;;;;;;;38.15;23.60;;;;;;;;;;5093913;28;20044;-83
2023/10/18 00:18:22;;;;;;;40.58;23.17;;;;;;;;;;5101372;28;20044;-83
2023/10/18 00:20:48;;;;;;;36.58;22.60;;;;;;;;;;5093877;28;20040;-83
2023/10/18 00:23:14;;;;;;;36.47;23.00;;;;;;;;;;5102201;28;20036;-83
2023/10/18 00:25:40;;;;;;;35.28;23.17;;;;;;;;;;5108730;28;20044;-83
2023/10/18 00:28:08;;;;;;;39.45;23.83;;;;;;;;;;5083731;28;20040;-83
2023/10/18 00:30:35;;;;;;;42.88;25.48;;;;;;;;;;5095925;28;20044;-83
2023/10/18 00:33:03;;;;;;;42.15;25.27;;;;;;;;;;5102617;28;20040;-83
2023/10/18 00:35:31;;;;;;;47.53;27.38;;;;;;;;;;5082954;28;20044;-83
2023/10/18 00:37:58;;;;;;;44.03;27.48;;;;;;;;;;5099715;28;20044;-83
2023/10/18 00:42:55;;;;;;;47.38;27.35;;;;;;;;;;5101835;28;20044;-83
2023/10/18 00:45:22;;;;;;;45.80;28.25;;;;;;;;;;5095814;28;20040;-83
2023/10/18 00:47:49;;;;;;;46.10;26.73;;;;;;;;;;5099518;28;20032;-83
2023/10/18 00:50:18;;;;;;;45.00;28.17;;;;;;;;;;5100988;28;20051;-83
2023/10/18 00:52:44;;;;;;;45.40;27.60;;;;;;;;;;5098995;28;20083;-83
2023/10/18 00:55:11;;;;;;;49.15;27.63;;;;;;;;;;5085896;28;20509;-83
2023/10/18 00:57:37;;;;;;;50.08;29.73;;;;;;;;;;5094367;28;20298;-83
2023/10/18 01:00:12;;;;;;;43.35;26.17;;;;;;;;;;5079074;28;20044;-83
2023/10/18 01:02:41;;;;;;;45.08;27.75;;;;;;;;;;5088528;28;20063;-82
2023/10/18 01:05:15;;;;;;;47.70;26.75;;;;;;;;;;5101055;28;20044;-83
2023/10/18 01:07:42;;;;;;;47.22;27.35;;;;;;;;;;5100665;28;20044;-83
2023/10/18 01:10:09;;;;;;;48.72;28.13;;;;;;;;;;5096674;28;20079;-83
2023/10/18 01:12:37;;;;;;;48.70;28.80;;;;;;;;;;5083128;28;20040;-83
2023/10/18 01:15:06;;;;;;;42.28;27.02;;;;;;;;;;5083833;28;20051;-83
2023/10/18 01:17:34;;;;;;;47.72;28.02;;;;;;;;;;5083828;28;20051;-83
2023/10/18 01:20:12;;;;;;;46.10;28.13;;;;;;;;;;5101389;28;20509;-83
2023/10/18 01:22:38;;;;;;;48.42;28.20;;;;;;;;;;5097515;28;20513;-82
2023/10/18 01:25:06;;;;;;;43.33;26.98;;;;;;;;;;5065662;28;20079;-83
2023/10/18 01:27:36;;;;;;;46.25;28.80;;;;;;;;;;5108646;28;20044;-83
2023/10/18 01:30:02;;;;;;;47.58;27.67;;;;;;;;;;5097502;28;20052;-83
2023/10/18 01:32:28;;;;;;;45.97;28.40;;;;;;;;;;5111944;28;20038;-83
2023/10/18 01:34:55;;;;;;;42.50;26.88;;;;;;;;;;5072573;28;20108;-83
2023/10/18 01:37:22;;;;;;;46.47;28.75;;;;;;;;;;5103751;28;20073;-84
2023/10/18 01:39:52;;;;;;;45.42;27.38;;;;;;;;;;5084409;28;20047;-82
2023/10/18 01:42:21;;;;;;;44.92;26.52;;;;;;;;;;5094193;28;20493;-82
2023/10/18 01:44:48;;;;;;;48.03;27.30;;;;;;;;;;5088280;28;20071;-82
2023/10/18 01:47:14;;;;;;;45.38;26.55;;;;;;;;;;5080858;28;20032;-83
2023/10/18 01:49:44;;;;;;;49.40;28.67;;;;;;;;;;5106683;28;20036;-83
2023/10/18 01:52:12;;;;;;;43.70;28.05;;;;;;;;;;5080586;28;20040;-83
2023/10/18 01:54:41;;;;;;;46.15;29.52;;;;;;;;;;5106391;28;20047;-83
2023/10/18 01:57:07;;;;;;;44.30;27.92;;;;;;;;;;5106403;28;20036;-83
2023/10/18 01:59:36;;;;;;;41.33;25.45;;;;;;;;;;5081954;28;20036;-83
2023/10/18 02:02:11;;;;;;;40.50;26.40;;;;;;;;;;5079527;28;20081;-83
2023/10/18 02:04:40;;;;;;;42.00;24.20;;;;;;;;;;5099211;28;20054;-82
2023/10/18 02:07:07;;;;;;;43.03;26.80;;;;;;;;;;5105414;28;20051;-82
2023/10/18 02:09:44;;;;;;;42.75;25.08;;;;;;;;;;5087315;28;20068;-82
2023/10/18 02:12:11;;;;;;;44.08;25.90;;;;;;;;;;5105699;28;20040;-83
2023/10/18 02:14:37;;;;;;;43.80;25.10;;;;;;;;;;5105667;28;20055;-82
2023/10/18 02:17:09;;;;;;;42.30;25.63;;;;;;;;;;5104528;28;20052;-83
2023/10/18 02:19:36;;;;;;;42.58;25.17;;;;;;;;;;5087422;28;20059;-82
2023/10/18 02:22:07;;;;;;;42.90;25.80;;;;;;;;;;5104654;28;20055;-83
2023/10/18 02:24:33;;;;;;;42.10;26.48;;;;;;;;;;5097764;28;20044;-83
2023/10/18 02:27:00;;;;;;;42.63;25.73;;;;;;;;;;5103041;28;20055;-83
2023/10/18 02:29:38;;;;;;;37.90;22.90;;;;;;;;;;5102172;28;20181;-84
2023/10/18 02:32:21;;;;;;;38.17;25.75;;;;;;;;;;5088399;28;20118;-83
2023/10/18 02:34:47;;;;;;;37.50;24.42;;;;;;;;;;5100518;28;20059;-83
2023/10/18 02:37:15;;;;;;;41.50;25.80;;;;;;;;;;5095481;28;20044;-83
2023/10/18 02:39:42;;;;;;;41.83;25.13;;;;;;;;;;5102270;28;20048;-83
2023/10/18 02:42:08;;;;;;;38.45;25.23;;;;;;;;;;5089034;28;20068;-83
2023/10/18 02:44:37;;;;;;;39.85;23.90;;;;;;;;;;5086272;28;20051;-83
2023/10/18 02:47:16;;;;;;;44.03;25.27;;;;;;;;;;5099919;28;20048;-84
2023/10/18 02:49:46;;;;;;;41.95;26.25;;;;;;;;;;5083363;28;20044;-83
2023/10/18 02:52:15;;;;;;;43.45;26.08;;;;;;;;;;5101219;28;20044;-83
2023/10/18 02:54:42;;;;;;;36.72;24.13;;;;;;;;;;5102255;28;20052;-83
2023/10/18 02:57:10;;;;;;;41.40;26.55;;;;;;;;;;5063129;28;20032;-82
2023/10/18 02:59:40;;;;;;;41.53;26.15;;;;;;;;;;5116145;28;20048;-83
2023/10/18 03:02:13;;;;;;;43.20;25.60;;;;;;;;;;5114142;28;20039;-83
2023/10/18 03:04:42;;;;;;;38.70;25.63;;;;;;;;;;5097814;28;20048;-83
2023/10/18 03:07:10;;;;;;;43.78;25.25;;;;;;;;;;5099733;28;20050;-83
2023/10/18 03:12:03;;;;;;;41.42;26.70;;;;;;;;;;5102369;28;20105;-83
2023/10/18 03:14:39;;;;;;;40.78;25.42;;;;;;;;;;5102321;28;20095;-83
2023/10/18 03:17:18;;;;;;;39.92;25.88;;;;;;;;;;5102282;28;20071;-83
2023/10/18 03:19:45;;;;;;;42.47;25.88;;;;;;;;;;5085129;28;20044;-83
2023/10/18 03:22:12;;;;;;;38.03;24.85;;;;;;;;;;5113585;28;20071;-83
2023/10/18 03:24:40;;;;;;;39.90;24.80;;;;;;;;;;5113849;28;20129;-83
2023/10/18 03:27:10;;;;;;;36.63;25.55;;;;;;;;;;5096123;28;20489;-83
2023/10/18 03:29:37;;;;;;;44.17;26.25;;;;;;;;;;5094771;28;20050;-83
2023/10/18 03:32:06;;;;;;;40.95;25.10;;;;;;;;;;5103067;28;20133;-83
2023/10/18 03:34:35;;;;;;;41.63;25.80;;;;;;;;;;5061101;28;20049;-83
2023/10/18 03:37:04;;;;;;;43.58;26.55;;;;;;;;;;5095017;28;20040;-83
2023/10/18 03:39:31;;;;;;;40.75;25.10;;;;;;;;;;5102066;28;20044;-83
2023/10/18 03:41:58;;;;;;;38.95;25.25;;;;;;;;;;5102796;28;20126;-82
2023/10/18 03:44:28;;;;;;;37.97;24.33;;;;;;;;;;5092074;28;20123;-83
2023/10/18 03:51:56;;;;;;;43.33;26.25;;;;;;;;;;5082954;28;20044;-83
2023/10/18 03:54:27;;;;;;;41.10;24.83;;;;;;;;;;5082197;28;20417;-83
2023/10/18 03:56:54;;;;;;;42.30;25.50;;;;;;;;;;5082320;28;20048;-83
2023/10/18 03:59:24;;;;;;;39.63;25.70;;;;;;;;;;5081306;28;20048;-83
2023/10/18 04:04:36;;;;;;;43.85;27.13;;;;;;;;;;5080762;28;20041;-83
2023/10/18 04:07:12;;;;;;;40.65;26.33;;;;;;;;;;5082593;28;20036;-83
2023/10/18 04:09:40;;;;;;;45.25;27.58;;;;;;;;;;5064564;28;20088;-83
2023/10/18 04:12:08;;;;;;;37.47;24.88;;;;;;;;;;5081262;28;20044;-83
2023/10/18 04:14:34;;;;;;;39.28;23.80;;;;;;;;;;5081423;28;20052;-83
2023/10/18 04:17:08;;;;;;;45.80;27.48;;;;;;;;;;5071308;28;20040;-83
2023/10/18 04:19:34;;;;;;;43.85;29.23;;;;;;;;;;5078224;28;20052;-83
2023/10/18 04:22:04;;;;;;;47.28;27.60;;;;;;;;;;5067377;28;20054;-83
2023/10/18 04:24:32;;;;;;;42.50;27.80;;;;;;;;;;5082855;28;20052;-83
2023/10/18 04:27:02;;;;;;;43.15;28.98;;;;;;;;;;5066646;28;20052;-83
2023/10/18 04:29:33;;;;;;;44.08;28.77;;;;;;;;;;5065452;28;20490;-83
2023/10/18 04:31:59;;;;;;;44.72;26.52;;;;;;;;;;5060457;28;20040;-83
2023/10/18 04:34:29;;;;;;;43.22;27.75;;;;;;;;;;5060532;28;20047;-83
2023/10/18 04:36:55;;;;;;;45.70;29.38;;;;;;;;;;5077501;28;20040;-83
2023/10/18 04:39:21;;;;;;;42.10;28.52;;;;;;;;;;5062693;28;20044;-83
2023/10/18 04:41:49;;;;;;;44.97;28.13;;;;;;;;;;5080508;28;20417;-83
2023/10/18 04:44:18;;;;;;;40.35;27.85;;;;;;;;;;5077288;28;20037;-83
2023/10/18 04:46:48;;;;;;;39.95;26.40;;;;;;;;;;5065301;28;20075;-84
2023/10/18 04:54:35;;;;;;;39.40;27.92;;;;;;;;;;5097988;28;20044;-83
2023/10/18 04:57:04;;;;;;;39.80;27.63;;;;;;;;;;5101071;28;20048;-83
2023/10/18 04:59:45;;;;;;;44.00;27.50;;;;;;;;;;5094904;28;20044;-84
2023/10/18 05:02:17;;;;;;;40.17;27.40;;;;;;;;;;5083988;28;20075;-83
2023/10/18 05:04:46;;;;;;;39.88;27.17;;;;;;;;;;5096898;28;20169;-83
2023/10/18 05:12:16;;;;;;;42.55;27.80;;;;;;;;;;5098810;28;20245;-83
2023/10/18 05:14:42;;;;;;;41.40;28.15;;;;;;;;;;5097586;28;20040;-83
2023/10/18 05:17:17;;;;;;;41.97;27.15;;;;;;;;;;5093187;28;20036;-84
2023/10/18 05:19:44;;;;;;;40.65;29.05;;;;;;;;;;5104520;28;20527;-83
2023/10/18 05:22:17;;;;;;;38.60;27.35;;;;;;;;;;5105037;28;20052;-83
2023/10/18 05:24:46;;;;;;;40.70;28.05;;;;;;;;;;5091102;28;20444;-83
2023/10/18 05:27:24;;;;;;;43.42;27.35;;;;;;;;;;5093603;28;20054;-84
2023/10/18 05:29:57;;;;;;;38.78;27.20;;;;;;;;;;5089834;28;20036;-84
2023/10/18 05:33:15;;;;;;;39.15;26.40;;;;;;;;;;5103645;28;20075;-83
2023/10/18 05:35:26;;;;;;;39.97;26.73;;;;;;;;;;5082816;28;20051;-83
2023/10/18 05:40:45;;;;;;;43.58;28.20;;;;;;;;;;5031821;28;20436;-83
2023/10/18 05:43:29;;;;;;;42.65;28.60;;;;;;;;;;5048005;28;20506;-84
2023/10/18 05:45:56;;;;;;;41.92;26.67;;;;;;;;;;5058974;28;20046;-83
2023/10/18 05:48:23;;;;;;;44.70;28.83;;;;;;;;;;5058102;28;20067;-83
2023/10/18 05:50:49;;;;;;;41.50;27.35;;;;;;;;;;5059613;28;20049;-83
2023/10/18 05:53:19;;;;;;;39.83;28.73;;;;;;;;;;5043074;28;20127;-83
2023/10/18 05:55:52;;;;;;;45.22;29.48;;;;;;;;;;5061628;28;20045;-83
2023/10/18 05:58:25;;;;;;;42.88;30.40;;;;;;;;;;5061429;28;20100;-83
2023/10/18 06:01:02;;;;;;;39.45;28.50;;;;;;;;;;5045191;28;20109;-83
2023/10/18 06:03:39;;;;;;;40.33;27.92;;;;;;;;;;5059973;28;20152;-83
2023/10/18 06:06:05;;;;;;;42.25;28.27;;;;;;;;;;5034359;28;20235;-83
2023/10/18 06:08:31;;;;;;;41.55;29.00;;;;;;;;;;5062261;28;20045;-83
2023/10/18 06:11:06;;;;;;;41.10;28.95;;;;;;;;;;5060778;28;20151;-84
2023/10/18 06:13:36;;;;;;;42.47;30.08;;;;;;;;;;5041513;28;20353;-84
2023/10/18 06:16:18;;;;;;;40.60;28.80;;;;;;;;;;5061091;28;20462;-83
2023/10/18 06:18:48;;;;;;;40.17;28.25;;;;;;;;;;5101697;28;20052;-83
2023/10/18 06:21:18;;;;;;;41.85;29.40;;;;;;;;;;5097986;28;20048;-84
2023/10/18 06:23:59;;;;;;;41.15;28.15;;;;;;;;;;5098900;28;20052;-84
2023/10/18 06:26:28;;;;;;;;;;;;;;;;;;5102117;28;20085;-84
2023/10/18 06:29:02;;;;;;;43.45;29.17;;;;;;;;;;5100519;28;20385;-83
2023/10/18 06:31:31;;;;;;;41.25;27.73;;;;;;;;;;5097729;28;20036;-83
2023/10/18 06:33:59;;;;;;;43.83;28.60;;;;;;;;;;5103568;28;20040;-83
2023/10/18 06:36:25;;;;;;;39.88;27.63;;;;;;;;;;5102336;28;20390;-83
2023/10/18 06:38:52;;;;;;;41.25;28.52;;;;;;;;;;5106732;28;20048;-83
2023/10/18 06:41:18;;;;;;;41.50;28.90;;;;;;;;;;5104718;28;20132;-82
2023/10/18 06:43:45;;;;;;;41.08;29.55;;;;;;;;;;5105369;28;20446;-83
2023/10/18 06:46:26;;;;;;;39.53;28.23;;;;;;;;;;5090756;28;20037;-83
2023/10/18 06:48:54;;;;;;;39.65;28.60;;;;;;;;;;5082897;28;20059;-83
2023/10/18 06:51:30;;;;;;;40.83;28.38;;;;;;;;;;5104052;28;20056;-83
2023/10/18 06:53:58;;;;;;;39.22;26.73;;;;;;;;;;5104736;28;20066;-83
2023/10/18 06:56:26;;;;;;;39.00;27.55;;;;;;;;;;5106412;28;20100;-83
2023/10/18 06:58:53;;;;;;;38.35;27.38;;;;;;;;;;5085480;28;20063;-83
2023/10/18 07:01:30;;;;;;;35.25;25.88;;;;;;;;;;5104424;28;20051;-83
2023/10/18 07:03:56;;;;;;;36.67;25.88;;;;;;;;;;5105877;28;20082;-83
2023/10/18 07:06:29;;;;;;;39.97;27.55;;;;;;;;;;5102956;28;20055;-84
2023/10/18 07:08:55;;;;;;;38.65;25.75;;;;;;;;;;5103196;28;20040;-83
2023/10/18 07:11:26;;;;;;;37.47;25.17;;;;;;;;;;5100025;28;20044;-83
2023/10/18 07:13:53;;;;;;;38.63;26.17;;;;;;;;;;5085115;28;20135;-83
2023/10/18 07:16:38;;;;;;;35.90;25.98;;;;;;;;;;5101743;28;20602;-83
2023/10/18 07:21:50;;;;;;;38.00;26.20;;;;;;;;;;5095812;28;20540;-83
2023/10/18 07:24:20;;;;;;;33.10;25.33;;;;;;;;;;5103269;28;20472;-83
2023/10/18 07:26:47;;;;;;;35.53;25.88;;;;;;;;;;5085501;28;20055;-84
2023/10/18 07:29:20;;;;;;;39.70;27.45;;;;;;;;;;5101420;28;20043;-83
2023/10/18 07:31:47;;;;;;;39.40;25.33;;;;;;;;;;5101033;28;20105;-83
2023/10/18 07:34:28;;;;;;;35.72;26.00;;;;;;;;;;5098727;28;20058;-83
2023/10/18 07:36:55;;;;;;;35.95;24.38;;;;;;;;;;5100858;28;20111;-83
2023/10/18 07:39:24;;;;;;;32.33;24.13;;;;;;;;;;5100339;28;20040;-83
2023/10/18 07:41:55;;;;;;;36.47;25.08;;;;;;;;;;5099156;28;20062;-83
2023/10/18 07:44:21;;;;;;;34.08;23.50;;;;;;;;;;5100475;28;20047;-83
2023/10/18 07:46:47;;;;;;;32.63;23.70;;;;;;;;;;5102627;28;20526;-83
2023/10/18 07:49:14;;;;;;;33.00;23.25;;;;;;;;;;5102690;28;20044;-83
2023/10/18 07:51:48;;;;;;;28.83;22.65;;;;;;;;;;5096241;28;20080;-83
2023/10/18 07:54:15;;;;;;;30.30;22.50;;;;;;;;;;5101931;28;20121;-83
2023/10/18 07:56:48;;;;;;;29.55;20.63;;;;;;;;;;5102982;28;20098;-82
2023/10/18 07:59:27;;;;;;;29.98;21.30;;;;;;;;;;5104821;28;20059;-83
2023/10/18 08:02:07;;;;;;;30.55;21.83;;;;;;;;;;5105738;28;20051;-83
2023/10/18 08:04:37;;;;;;;28.42;21.10;;;;;;;;;;5084354;28;20048;-84
2023/10/18 08:07:10;;;;;;;27.73;21.05;;;;;;;;;;5071559;28;20051;-82
2023/10/18 08:09:41;;;;;;;29.92;21.60;;;;;;;;;;5100446;28;20051;-82
2023/10/18 08:14:54;;;;;;;29.63;21.20;;;;;;;;;;5103754;28;20490;-82
2023/10/18 08:17:29;;;;;;;28.48;21.13;;;;;;;;;;5101884;28;20444;-82
2023/10/18 08:22:47;;;;;;;25.13;18.98;;;;;;;;;;5102294;28;20104;-82
2023/10/18 08:25:31;;;;;;;30.35;21.20;;;;;;;;;;5103765;28;20044;-84
2023/10/18 08:27:59;;;;;;;27.48;20.60;;;;;;;;;;5100132;28;20070;-82
2023/10/18 08:31:02;;;;;;;27.75;20.20;;;;;;;;;;5098864;28;20063;-83
2023/10/18 08:33:24;;;;;;;28.05;20.00;;;;;;;;;;5100553;28;20105;-83
2023/10/18 08:35:58;;;;;;;28.30;20.65;;;;;;;;;;5101516;28;20052;-83
2023/10/18 08:38:26;;;;;;;24.42;19.17;;;;;;;;;;5100604;28;20496;-83
2023/10/18 08:41:05;;;;;;;28.85;20.83;;;;;;;;;;5102852;28;20370;-83
2023/10/18 08:43:33;;;;;;;26.15;21.05;;;;;;;;;;5093431;28;20101;-83
2023/10/18 08:46:05;;;;;;;25.40;18.20;;;;;;;;;;5096157;28;20435;-84
2023/10/18 08:48:38;;;;;;;24.27;19.05;;;;;;;;;;5099799;28;20054;-83
2023/10/18 08:51:07;;;;;;;27.10;20.27;;;;;;;;;;5097218;28;20044;-83
2023/10/18 08:53:35;;;;;;;28.38;20.08;;;;;;;;;;5095706;28;20048;-84
2023/10/18 08:56:06;;;;;;;25.23;18.98;;;;;;;;;;5085089;28;20058;-84
2023/10/18 08:58:33;;;;;;;25.65;18.10;;;;;;;;;;5098195;28;20074;-83
2023/10/18 09:03:29;;;;;;;24.02;16.63;;;;;;;;;;5081346;28;20041;-84
2023/10/18 09:06:05;;;;;;;21.88;16.15;;;;;;;;;;5091615;28;20040;-84
2023/10/18 09:08:38;;;;;;;21.23;15.70;;;;;;;;;;5101236;28;20076;-82
2023/10/18 09:11:21;;;;;;;22.00;16.70;;;;;;;;;;5098582;28;20095;-83
2023/10/18 09:16:40;;;;;;;21.33;15.95;;;;;;;;;;5097207;28;20051;-84
2023/10/18 09:19:10;;;;;;;21.43;15.77;;;;;;;;;;5098244;28;20512;-83
2023/10/18 09:21:36;;;;;;;19.45;15.23;;;;;;;;;;5101389;28;20508;-85
2023/10/18 09:24:06;;;;;;;21.00;15.45;;;;;;;;;;5096097;28;20044;-83
2023/10/18 09:26:40;;;;;;;20.10;14.55;;;;;;;;;;5086781;28;20058;-83
2023/10/18 09:29:08;;;;;;;20.67;14.88;;;;;;;;;;5099072;28;20040;-83
2023/10/18 09:31:34;;;;;;;18.77;14.68;;;;;;;;;;5100098;28;20055;-83
2023/10/18 09:34:07;;;;;;;21.45;14.73;;;;;;;;;;5101008;28;20089;-83
2023/10/18 09:36:38;;;;;;;17.10;13.80;;;;;;;;;;5101411;28;20101;-84
2023/10/18 09:39:11;;;;;;;19.02;14.18;;;;;;;;;;5099174;28;20350;-83
2023/10/18 09:41:40;;;;;;;17.63;13.20;;;;;;;;;;5100915;28;20056;-83
2023/10/18 09:44:07;;;;;;;19.38;14.77;;;;;;;;;;5101147;28;20431;-83
2023/10/18 09:46:34;;;;;;;18.98;14.75;;;;;;;;;;5083530;28;20171;-84
2023/10/18 09:49:04;;;;;;;19.83;14.05;;;;;;;;;;5102893;28;20051;-83
2023/10/18 09:51:30;;;;;;;18.30;14.25;;;;;;;;;;5071373;28;20091;-84
2023/10/18 09:53:56;;;;;;;18.08;13.75;;;;;;;;;;5079765;28;20046;-83
2023/10/18 09:56:33;;;;;;;18.88;14.30;;;;;;;;;;5082626;28;20072;-82
2023/10/18 09:59:05;;;;;;;18.40;14.85;;;;;;;;;;5074281;28;20040;-84
2023/10/18 10:04:14;;;;;;;17.35;13.50;;;;;;;;;;5105640;28;20052;-83
2023/10/18 10:06:46;;;;;;;18.60;13.45;;;;;;;;;;5086077;28;20536;-83
2023/10/18 10:09:13;;;;;;;15.98;12.77;;;;;;;;;;5084565;28;20059;-84
2023/10/18 10:11:44;;;;;;;16.92;12.65;;;;;;;;;;5084187;28;20177;-83
2023/10/18 10:14:11;;;;;;;15.50;12.10;;;;;;;;;;5067393;28;20049;-83
2023/10/18 10:16:37;;;;;;;15.85;12.23;;;;;;;;;;5067356;28;20051;-83
2023/10/18 10:19:09;;;;;;;17.77;13.35;;;;;;;;;;5086360;28;20490;-83
2023/10/18 10:21:37;;;;;;;16.40;11.73;;;;;;;;;;5083942;28;20382;-83
2023/10/18 10:24:29;;;;;;;14.55;11.80;;;;;;;;;;5083470;28;20064;-83
2023/10/18 10:26:52;;;;;;;16.98;11.82;;;;;;;;;;5067807;28;20041;-83
2023/10/18 10:31:58;;;;;;;17.52;12.30;;;;;;;;;;5103975;28;20036;-83
2023/10/18 10:34:32;;;;;;;18.33;11.70;;;;;;;;;;5079655;28;20067;-83
2023/10/18 10:37:23;;;;;;;18.63;12.40;;;;;;;;;;5098545;28;20105;-83
2023/10/18 10:40:18;;;;;;;16.83;11.65;;;;;;;;;;5087802;28;20104;-84
2023/10/18 10:42:43;;;;;;;14.18;10.70;;;;;;;;;;5099575;28;20108;-84
2023/10/18 10:45:38;;;;;;;15.65;11.20;;;;;;;;;;5101726;28;20056;-83
2023/10/18 10:51:49;;;;;;;16.33;11.77;;;;;;;;;;5084043;28;20104;-83
2023/10/18 10:53:54;;;;;;;15.65;10.88;;;;;;;;;;5109485;28;20055;-82
2023/10/18 10:56:32;;;;;;;15.15;11.13;;;;;;;;;;5126256;28;20041;-83
2023/10/18 11:01:40;;;;;;;13.35;10.90;;;;;;;;;;5104293;28;20060;-83
2023/10/18 11:04:15;;;;;;;13.57;10.60;;;;;;;;;;5105952;28;20211;-83
2023/10/18 11:06:44;;;;;;;14.30;10.40;;;;;;;;;;5104925;28;20090;-83
2023/10/18 11:09:15;;;;;;;15.07;10.55;;;;;;;;;;5113506;28;20051;-83
2023/10/18 11:11:45;;;;;;;13.93;10.02;;;;;;;;;;5118489;28;20052;-84
2023/10/18 11:14:18;;;;;;;13.45;9.70;;;;;;;;;;5116848;28;20040;-83
2023/10/18 11:16:53;;;;;;;15.85;10.73;;;;;;;;;;5116252;28;20044;-83
2023/10/18 11:19:28;;;;;;;13.50;9.43;;;;;;;;;;5116395;28;20048;-83
2023/10/18 11:21:54;;;;;;;13.00;9.55;;;;;;;;;;5113580;28;20048;-83
2023/10/18 11:24:21;;;;;;;12.88;9.65;;;;;;;;;;5102599;28;20083;-83
2023/10/18 11:26:51;;;;;;;11.95;8.85;;;;;;;;;;5095333;28;20041;-83
2023/10/18 11:29:24;;;;;;;13.02;9.93;;;;;;;;;;5096818;28;20055;-83
2023/10/18 11:31:51;;;;;;;12.68;9.40;;;;;;;;;;5095076;28;20040;-83
2023/10/18 11:34:22;;;;;;;14.25;8.57;;;;;;;;;;5110104;28;20035;-83
2023/10/18 11:36:52;;;;;;;13.75;9.90;;;;;;;;;;5100911;28;20062;-83
2023/10/18 11:39:19;;;;;;;13.68;9.50;;;;;;;;;;5098259;28;20052;-83
2023/10/18 11:41:49;;;;;;;13.27;9.50;;;;;;;;;;5098133;28;20054;-83
2023/10/18 11:44:26;;;;;;;14.50;9.43;;;;;;;;;;5106828;28;20044;-84
2023/10/18 11:47:02;;;;;;;12.45;9.35;;;;;;;;;;5108391;28;20048;-83
2023/10/18 11:49:54;;;;;;;14.73;9.30;;;;;;;;;;5108397;28;20052;-83
2023/10/18 11:52:21;;;;;;;12.57;9.50;;;;;;;;;;5102276;28;20082;-83
2023/10/18 11:54:52;;;;;;;13.05;9.05;;;;;;;;;;5106091;28;20084;-83
2023/10/18 11:57:24;;;;;;;16.45;9.30;;;;;;;;;;5084661;28;20055;-83
2023/10/18 11:59:51;;;;;;;15.35;8.88;;;;;;;;;;5093224;28;20044;-83
2023/10/18 12:02:18;;;;;;;14.05;9.55;;;;;;;;;;5086088;28;20048;-83
2023/10/18 12:04:45;;;;;;;15.60;9.93;;;;;;;;;;5099214;28;20052;-83
2023/10/18 12:07:14;;;;;;;13.70;9.35;;;;;;;;;;5102594;28;20139;-83
2023/10/18 12:09:43;;;;;;;15.32;10.10;;;;;;;;;;5106029;28;20123;-83
2023/10/18 12:12:13;;;;;;;13.70;9.30;;;;;;;;;;5100791;28;20100;-84
2023/10/18 12:14:42;;;;;;;14.43;9.82;;;;;;;;;;5102017;28;20055;-83
2023/10/18 12:17:09;;;;;;;14.55;9.50;;;;;;;;;;5097927;28;20395;-84
2023/10/18 12:19:37;;;;;;;12.95;9.20;;;;;;;;;;5101998;28;20044;-83
2023/10/18 12:22:03;;;;;;;14.13;9.68;;;;;;;;;;5102063;28;20068;-83
2023/10/18 12:24:33;;;;;;;12.65;8.95;;;;;;;;;;5099353;28;20108;-83
2023/10/18 12:27:06;;;;;;;12.52;8.80;;;;;;;;;;5081148;28;20048;-84
2023/10/18 12:29:32;;;;;;;13.35;8.70;;;;;;;;;;5082202;28;20048;-83
2023/10/18 12:32:19;;;;;;;14.70;9.07;;;;;;;;;;5082427;28;20090;-83
2023/10/18 12:34:48;;;;;;;12.35;8.95;;;;;;;;;;5083655;28;20048;-83
2023/10/18 12:37:15;;;;;;;12.45;9.20;;;;;;;;;;5092985;28;20040;-83
2023/10/18 12:39:46;;;;;;;13.68;9.35;;;;;;;;;;5091419;28;20036;-83
2023/10/18 12:42:13;;;;;;;14.60;9.20;;;;;;;;;;5101645;28;20059;-83
2023/10/18 12:44:39;;;;;;;13.55;9.07;;;;;;;;;;5102787;28;20051;-85
2023/10/18 12:47:09;;;;;;;16.05;9.77;;;;;;;;;;5106477;28;20040;-83
2023/10/18 12:49:43;;;;;;;13.95;9.30;;;;;;;;;;5105034;28;20410;-83
2023/10/18 12:52:40;;;;;;;12.27;9.15;;;;;;;;;;5103098;28;20047;-83
2023/10/18 12:54:56;;;;;;;13.50;9.25;;;;;;;;;;5101792;28;20044;-83
2023/10/18 12:57:24;;;;;;;15.23;9.38;;;;;;;;;;5100918;28;20062;-83
2023/10/18 13:05:11;;;;;;;16.45;10.38;;;;;;;;;;5096212;28;20068;-83
2023/10/18 13:07:37;;;;;;;15.90;9.35;;;;;;;;;;5080558;28;20041;-84
2023/10/18 13:10:15;;;;;;;16.70;10.52;;;;;;;;;;5084850;28;20043;-83
2023/10/18 13:12:53;;;;;;;14.25;9.40;;;;;;;;;;5100940;28;20041;-85
2023/10/18 13:15:19;;;;;;;14.57;9.90;;;;;;;;;;5094573;28;20481;-84
2023/10/18 13:17:45;;;;;;;15.13;10.20;;;;;;;;;;5098487;28;20053;-83
2023/10/18 13:20:15;;;;;;;20.63;11.05;;;;;;;;;;5091227;28;20040;-83
2023/10/18 13:22:42;;;;;;;15.53;10.37;;;;;;;;;;5094888;28;20374;-83
2023/10/18 13:25:09;;;;;;;15.63;9.90;;;;;;;;;;5098575;28;20124;-83
2023/10/18 13:27:40;;;;;;;16.20;10.73;;;;;;;;;;5080148;28;20061;-83
2023/10/18 13:32:51;;;;;;;16.10;9.88;;;;;;;;;;5095567;28;20040;-83
2023/10/18 13:35:17;;;;;;;14.50;9.65;;;;;;;;;;5099935;28;20040;-83
2023/10/18 13:37:43;;;;;;;15.60;10.13;;;;;;;;;;5103684;28;20044;-84
2023/10/18 13:40:18;;;;;;;15.77;10.45;;;;;;;;;;5085929;28;20394;-84
2023/10/18 13:42:45;;;;;;;15.32;10.57;;;;;;;;;;5086650;28;20101;-83
2023/10/18 13:45:14;;;;;;;15.10;10.70;;;;;;;;;;5067572;28;20049;-83
2023/10/18 13:47:40;;;;;;;14.65;9.50;;;;;;;;;;5095248;28;20048;-83
2023/10/18 13:50:12;;;;;;;17.80;10.27;;;;;;;;;;5103393;28;20048;-83
2023/10/18 13:52:41;;;;;;;17.42;10.35;;;;;;;;;;5104385;28;20086;-83
2023/10/18 13:55:08;;;;;;;16.27;10.73;;;;;;;;;;5104942;28;20064;-83
2023/10/18 13:57:35;;;;;;;14.10;10.30;;;;;;;;;;5104378;28;20044;-83
2023/10/18 14:00:06;;;;;;;15.60;10.50;;;;;;;;;;5103880;28;20078;-83
2023/10/18 14:02:36;;;;;;;16.90;10.00;;;;;;;;;;5107838;28;20040;-83
2023/10/18 14:05:02;;;;;;;16.15;9.38;;;;;;;;;;5104725;28;20489;-83
2023/10/18 14:07:28;;;;;;;14.60;9.80;;;;;;;;;;5085676;28;20044;-83
2023/10/18 14:09:55;;;;;;;15.05;10.00;;;;;;;;;;5095190;28;20046;-83
2023/10/18 14:12:24;;;;;;;17.40;10.35;;;;;;;;;;5099306;28;20044;-82
2023/10/18 14:14:51;;;;;;;17.02;9.63;;;;;;;;;;5104587;28;20466;-84
2023/10/18 14:17:17;;;;;;;14.52;9.52;;;;;;;;;;5103164;28;20044;-83
2023/10/18 14:19:43;;;;;;;13.10;9.70;;;;;;;;;;5106355;28;20040;-84
2023/10/18 14:22:10;;;;;;;18.98;10.77;;;;;;;;;;5103866;28;20373;-84
2023/10/18 14:24:37;;;;;;;15.45;10.25;;;;;;;;;;5096381;28;20123;-84
2023/10/18 14:27:03;;;;;;;14.88;10.07;;;;;;;;;;5103901;28;20047;-84
2023/10/18 14:29:32;;;;;;;13.43;9.75;;;;;;;;;;5108378;28;20075;-83
2023/10/18 14:31:58;;;;;;;13.63;10.25;;;;;;;;;;5104363;28;20070;-83
2023/10/18 14:34:24;;;;;;;16.38;10.07;;;;;;;;;;5104869;28;20044;-83
2023/10/18 14:36:50;;;;;;;13.30;9.68;;;;;;;;;;5104627;28;20097;-83
2023/10/18 14:39:16;;;;;;;15.55;10.00;;;;;;;;;;5088016;28;20105;-83
2023/10/18 14:41:42;;;;;;;14.50;10.13;;;;;;;;;;5103303;28;20100;-84
2023/10/18 14:44:08;;;;;;;16.42;10.70;;;;;;;;;;5103581;28;20058;-83
2023/10/18 14:46:37;;;;;;;14.48;9.40;;;;;;;;;;5103795;28;20474;-83
2023/10/18 14:49:03;;;;;;;14.63;9.90;;;;;;;;;;5101700;28;20454;-84
2023/10/18 14:51:30;;;;;;;12.30;9.55;;;;;;;;;;5100180;28;20060;-83
2023/10/18 14:53:57;;;;;;;14.48;10.05;;;;;;;;;;5103654;28;20052;-84
2023/10/18 14:56:23;;;;;;;13.60;8.68;;;;;;;;;;5092748;28;20402;-84
2023/10/18 14:58:50;;;;;;;14.65;9.55;;;;;;;;;;5081806;28;20044;-84
2023/10/18 15:01:16;;;;;;;13.25;10.07;;;;;;;;;;5100326;28;20040;-85
2023/10/18 15:03:43;;;;;;;15.27;10.57;;;;;;;;;;5097634;28;20044;-84
2023/10/18 15:06:09;;;;;;;14.95;9.80;;;;;;;;;;5094847;28;20052;-84
2023/10/18 15:08:36;;;;;;;12.00;9.27;;;;;;;;;;5103936;28;20055;-84
2023/10/18 15:11:17;;;;;;;12.93;8.90;;;;;;;;;;5101847;28;20048;-84
2023/10/18 15:13:46;;;;;;;14.27;8.48;;;;;;;;;;5103323;28;20047;-84
2023/10/18 15:16:13;;;;;;;13.65;9.45;;;;;;;;;;5102228;28;20047;-83
2023/10/18 15:18:42;;;;;;;13.90;9.43;;;;;;;;;;5097307;28;20106;-84
2023/10/18 15:21:11;;;;;;;15.75;9.00;;;;;;;;;;5099159;28;20105;-84
2023/10/18 15:23:40;;;;;;;12.55;9.20;;;;;;;;;;5103006;28;20114;-84
2023/10/18 15:26:09;;;;;;;13.65;9.75;;;;;;;;;;5093130;28;20045;-84
2023/10/18 15:28:36;;;;;;;14.35;9.45;;;;;;;;;;5097079;28;20048;-84
2023/10/18 15:31:09;;;;;;;14.23;9.63;;;;;;;;;;5104112;28;20447;-84
2023/10/18 15:33:39;;;;;;;13.52;8.77;;;;;;;;;;5103576;28;20040;-84
2023/10/18 15:36:24;;;;;;;14.30;9.45;;;;;;;;;;5101565;28;20051;-84